| time (UTC) | temp C | wind direction | speed KPH | gust KPH | rain 1hr cm | rain 24hr cm | rain mn cm | humidity % | barometer mb |
| 20260906034826 | 12 | 3.2 | 0.0 | 0.00 | 0.00 | 0.00 | 77 | 1021.0 | |
| 20260906033426 | 13 | 230 | 14.5 | 0.0 | 0.00 | 0.00 | 0.00 | 77 | 1021.0 |
| 20260906031925 | 13 | 230 | 14.5 | 0.0 | 0.00 | 0.00 | 0.00 | 77 | 1021.0 |
| 20260906030425 | 13 | 230 | 14.5 | 0.0 | 0.00 | 0.00 | 0.00 | ||
| 20260906024838 | 12 | 220 | 8.0 | 0.0 | 0.00 | 0.00 | 0.00 | 82 | 1021.0 |
| 20260906023311 | 12 | 220 | 8.0 | 0.0 | 0.00 | 0.00 | 0.00 | 82 | 1021.0 |
| 20260906021818 | 15 | 1.6 | 0.0 | 0.00 | 0.00 | 0.00 | 77 | 1021.0 | |
| 20260906020312 | 15 | 1.6 | 0.0 | 0.00 | 0.00 | 0.00 | 77 | 1021.0 | |
| 20260906014812 | 16 | 1.6 | 0.0 | 0.00 | 0.00 | 0.00 | 72 | 1021.0 | |
| 20260906013426 | 16 | 1.6 | 0.0 | 0.00 | 0.00 | 0.00 | 72 | 1021.0 | |
| 20260906011811 | 17 | 360 | 9.7 | 0.0 | 0.00 | 0.00 | 0.00 | 73 | 1021.0 |
| 20260906010311 | 17 | 360 | 9.7 | 0.0 | 0.00 | 0.00 | 0.00 | 73 | 1021.0 |
| 20260906004926 | 17 | 360 | 12.9 | 0.0 | 0.00 | 0.00 | 0.00 | 83 | 1020.0 |
| 20260906003436 | 17 | 360 | 12.9 | 0.0 | 0.00 | 0.00 | 0.00 | 83 | 1020.0 |
| 20260906001926 | 17 | 10 | 14.5 | 0.0 | 0.00 | 0.00 | 0.00 | 78 | 1020.0 |
| 20260906000415 | 17 | 10 | 14.5 | 0.0 | 0.00 | 0.00 | 0.00 | 78 | 1020.0 |
| 20260905234821 | 17 | 40 | 9.7 | 0.0 | 0.00 | 0.00 | 0.00 | 60 | 1020.0 |
| 20260905233311 | 17 | 40 | 9.7 | 0.0 | 0.00 | 0.00 | 0.00 | 60 | 1020.0 |
| 20260905231926 | 21 | 330 | 12.9 | 0.0 | 0.00 | 0.00 | 0.00 | 40 | 1019.0 |
| 20260905230343 | 21 | 330 | 12.9 | 0.0 | 0.00 | 0.00 | 0.00 | 40 | 1019.0 |
| 20260905224926 | 22 | 330 | 17.7 | 0.0 | 0.00 | 0.00 | 0.00 | 38 | 1019.0 |
| 20260905223325 | 22 | 330 | 17.7 | 0.0 | 0.00 | 0.00 | 0.00 | 38 | 1019.0 |
| 20260905221911 | 22 | 330 | 11.3 | 0.0 | 0.00 | 0.00 | 0.00 | 50 | 1019.0 |
| 20260905220426 | 22 | 330 | 11.3 | 0.0 | 0.00 | 0.00 | 0.00 | 50 | 1019.0 |
| 20260905214925 | 22 | 310 | 12.9 | 0.0 | 0.00 | 0.00 | 0.00 | 61 | 1019.0 |
| 20260905213311 | 22 | 310 | 12.9 | 0.0 | 0.00 | 0.00 | 0.00 | 61 | 1019.0 |
| 20260905211811 | 21 | 320 | 4.8 | 0.0 | 0.00 | 0.00 | 0.00 | 64 | 1019.0 |
| 20260905210311 | 21 | 320 | 4.8 | 0.0 | 0.00 | 0.00 | 0.00 | 64 | 1019.0 |
| 20260905204821 | 18 | 220 | 8.0 | 0.0 | 0.00 | 0.00 | 0.00 | 73 | 1018.0 |
| 20260905203311 | 18 | 220 | 8.0 | 0.0 | 0.00 | 0.00 | 0.00 | 73 | 1018.0 |
| 20260905201811 | 20 | 260 | 9.7 | 0.0 | 0.00 | 0.00 | 0.00 | 69 | 1018.0 |
| 20260905200426 | 21 | 260 | 8.0 | 0.0 | 0.00 | 0.00 | 0.00 | 64 | 1018.0 |
| 20260905194917 | 21 | 260 | 8.0 | 0.0 | 0.00 | 0.00 | 0.00 | 64 | 1018.0 |
| 20260905193311 | 21 | 260 | 8.0 | 0.0 | 0.00 | 0.00 | 0.00 | 64 | 1018.0 |
| 20260905191840 | 22 | 240 | 8.0 | 0.0 | 0.00 | 0.00 | 0.00 | 61 | 1018.0 |
| 20260905190312 | 22 | 240 | 8.0 | 0.0 | 0.00 | 0.00 | 0.00 | 61 | 1018.0 |
| 20260905184812 | 22 | 210 | 9.7 | 0.0 | 0.00 | 0.00 | 0.00 | 61 | 1018.0 |
| 20260905183316 | 22 | 210 | 9.7 | 0.0 | 0.00 | 0.00 | 0.00 | 61 | 1018.0 |
| 20260905181811 | 22 | 250 | 4.8 | 0.0 | 0.00 | 0.00 | 0.00 | 57 | 1018.0 |
| 20260905180311 | 22 | 250 | 4.8 | 0.0 | 0.00 | 0.00 | 0.00 | 57 | 1018.0 |
| 20260905174811 | 23 | 310 | 11.3 | 0.0 | 0.00 | 0.00 | 0.00 | 54 | 1018.0 |
| 20260905173311 | 23 | 310 | 11.3 | 0.0 | 0.00 | 0.00 | 0.00 | 54 | 1018.0 |
| 20260905171822 | 25 | 360 | 20.9 | 0.0 | 0.00 | 0.00 | 0.00 | 44 | 1017.0 |
| 20260905170311 | 25 | 360 | 20.9 | 0.0 | 0.00 | 0.00 | 0.00 | 44 | 1017.0 |
| 20260905164811 | 27 | 340 | 22.5 | 0.0 | 0.00 | 0.00 | 0.00 | 42 | 1016.0 |
| 20260905163312 | 27 | 340 | 22.5 | 0.0 | 0.00 | 0.00 | 0.00 | 42 | 1016.0 |
| 20260905161812 | 31 | 320 | 25.7 | 0.0 | 0.00 | 0.00 | 0.00 | 29 | 1015.0 |
| 20260905160312 | 31 | 320 | 25.7 | 0.0 | 0.00 | 0.00 | 0.00 | 29 | 1015.0 |
| 20260905154828 | 32 | 310 | 24.1 | 0.0 | 0.00 | 0.00 | 0.00 | 27 | 1015.0 |
| 20260905153311 | 32 | 310 | 24.1 | 0.0 | 0.00 | 0.00 | 0.00 | 27 | 1015.0 |
| 20260905151811 | 32 | 320 | 27.4 | 0.0 | 0.00 | 0.00 | 0.00 | 27 | 1014.0 |
| 20260905150312 | 32 | 320 | 27.4 | 0.0 | 0.00 | 0.00 | 0.00 | 27 | 1014.0 |
| 20260905144811 | 32 | 310 | 32.2 | 0.0 | 0.00 | 0.00 | 0.00 | 27 | 1014.0 |
| 20260905143311 | 32 | 310 | 32.2 | 0.0 | 0.00 | 0.00 | 0.00 | 27 | 1014.0 |
| 20260905141811 | 32 | 310 | 32.2 | 0.0 | 0.00 | 0.00 | 0.00 | 26 | 1014.0 |
| 20260905140311 | 32 | 310 | 32.2 | 0.0 | 0.00 | 0.00 | 0.00 | 26 | 1014.0 |
| 20260905134923 | 32 | 320 | 33.8 | 0.0 | 0.00 | 0.00 | 0.00 | 26 | 1014.0 |
| 20260905133311 | 32 | 320 | 33.8 | 0.0 | 0.00 | 0.00 | 0.00 | 26 | 1014.0 |
| 20260905131814 | 32 | 320 | 32.2 | 0.0 | 0.00 | 0.00 | 0.00 | 27 | 1015.0 |
| 20260905130333 | 32 | 320 | 32.2 | 0.0 | 0.00 | 0.00 | 0.00 | 27 | 1015.0 |
| 20260905124812 | 32 | 310 | 29.0 | 0.0 | 0.00 | 0.00 | 0.00 | 26 | 1015.0 |
| 20260905123312 | 32 | 310 | 29.0 | 0.0 | 0.00 | 0.00 | 0.00 | 26 | 1015.0 |
| 20260905121839 | 32 | 310 | 29.0 | 0.0 | 0.00 | 0.00 | 0.00 | 28 | 1015.0 |
| 20260905120312 | 32 | 310 | 29.0 | 0.0 | 0.00 | 0.00 | 0.00 | 28 | 1015.0 |
| 20260905114811 | 32 | 300 | 12.9 | 0.0 | 0.00 | 0.00 | 0.00 | 27 | 1016.0 |
| 20260905113311 | 32 | 300 | 12.9 | 0.0 | 0.00 | 0.00 | 0.00 | 27 | 1016.0 |
| 20260905111830 | 32 | 320 | 14.5 | 0.0 | 0.00 | 0.00 | 0.00 | 29 | 1016.0 |
| 20260905110311 | 32 | 320 | 14.5 | 0.0 | 0.00 | 0.00 | 0.00 | 29 | 1016.0 |
| 20260905104811 | 32 | 3.2 | 0.0 | 0.00 | 0.00 | 0.00 | 29 | 1016.0 | |
| 20260905103311 | 32 | 3.2 | 0.0 | 0.00 | 0.00 | 0.00 | 29 | 1016.0 | |
| 20260905101811 | 31 | 290 | 9.7 | 0.0 | 0.00 | 0.00 | 0.00 | 31 | 1016.0 |
| 20260905100312 | 31 | 290 | 9.7 | 0.0 | 0.00 | 0.00 | 0.00 | 31 | 1016.0 |
| 20260905094926 | 30 | 3.2 | 0.0 | 0.00 | 0.00 | 0.00 | 35 | 1017.0 | |
| 20260905093311 | 30 | 3.2 | 0.0 | 0.00 | 0.00 | 0.00 | 35 | 1017.0 | |
| 20260905091811 | 28 | 4.8 | 0.0 | 0.00 | 0.00 | 0.00 | 35 | 1017.0 | |
| 20260905090311 | 28 | 4.8 | 0.0 | 0.00 | 0.00 | 0.00 | 35 | 1017.0 | |
| 20260905084811 | 28 | 100 | 8.0 | 0.0 | 0.00 | 0.00 | 0.00 | 37 | 1017.0 |
| 20260905083311 | 28 | 100 | 8.0 | 0.0 | 0.00 | 0.00 | 0.00 | 37 | 1017.0 |
| 20260905081811 | 27 | 3.2 | 0.0 | 0.00 | 0.00 | 0.00 | 37 | 1017.0 | |
| 20260905080312 | 27 | 3.2 | 0.0 | 0.00 | 0.00 | 0.00 | 37 | 1017.0 | |
| 20260905074811 | 26 | 110 | 11.3 | 0.0 | 0.00 | 0.00 | 0.00 | 45 | 1017.0 |
| 20260905073320 | 26 | 110 | 11.3 | 0.0 | 0.00 | 0.00 | 0.00 | 45 | 1017.0 |
| 20260905071812 | 25 | 70 | 4.8 | 0.0 | 0.00 | 0.00 | 0.00 | 47 | 1017.0 |
| 20260905070311 | 25 | 70 | 4.8 | 0.0 | 0.00 | 0.00 | 0.00 | 47 | 1017.0 |
| 20260905064812 | 22 | 80 | 4.8 | 0.0 | 0.00 | 0.00 | 0.00 | 53 | 1017.0 |
| 20260905063312 | 22 | 80 | 4.8 | 0.0 | 0.00 | 0.00 | 0.00 | 53 | 1017.0 |
| 20260905061812 | 20 | 100 | 4.8 | 0.0 | 0.00 | 0.00 | 0.00 | 64 | 1018.0 |
| 20260905060312 | 20 | 100 | 4.8 | 0.0 | 0.00 | 0.00 | 0.00 | 64 | 1018.0 |
| 20260905054811 | 17 | 90 | 3.2 | 0.0 | 0.00 | 0.00 | 0.00 | 68 | 1018.0 |
| 20260905053312 | 17 | 90 | 3.2 | 0.0 | 0.00 | 0.00 | 0.00 | 68 | 1018.0 |
| 20260905051811 | 17 | 3.2 | 0.0 | 0.00 | 0.00 | 0.00 | 73 | 1018.0 | |
| 20260905050311 | 17 | 3.2 | 0.0 | 0.00 | 0.00 | 0.00 | 73 | 1018.0 | |
| 20260905044811 | 13 | 1.6 | 0.0 | 0.00 | 0.00 | 0.00 | 82 | 1018.0 | |
| 20260905043311 | 13 | 1.6 | 0.0 | 0.00 | 0.00 | 0.00 | 82 | 1018.0 | |
| 20260905041811 | 12 | 3.2 | 0.0 | 0.00 | 0.00 | 0.00 | 88 | 1018.0 | |
| 20260905040311 | 12 | 3.2 | 0.0 | 0.00 | 0.00 | 0.00 | 88 | 1018.0 |